sensor_id;sensor_type;location;lat;lon;timestamp;temperature;humidity
40053;DHT22;25758;48.200;16.338;2023-05-01T00:02:20;13.00;92.80
40053;DHT22;25758;48.200;16.338;2023-05-01T00:04:46;13.00;93.00
40053;DHT22;25758;48.200;16.338;2023-05-01T00:07:11;12.90;92.80
40053;DHT22;25758;48.200;16.338;2023-05-01T00:09:37;12.90;92.90
40053;DHT22;25758;48.200;16.338;2023-05-01T00:12:02;12.90;93.10
40053;DHT22;25758;48.200;16.338;2023-05-01T00:14:29;12.90;93.00
40053;DHT22;25758;48.200;16.338;2023-05-01T00:16:55;12.90;93.00
40053;DHT22;25758;48.200;16.338;2023-05-01T00:19:20;10.20;92.30
40053;DHT22;25758;48.200;16.338;2023-05-01T00:21:47;12.80;93.00
40053;DHT22;25758;48.200;16.338;2023-05-01T00:24:15;12.80;93.00
40053;DHT22;25758;48.200;16.338;2023-05-01T00:26:41;12.80;93.00
40053;DHT22;25758;48.200;16.338;2023-05-01T00:29:07;12.80;93.00
40053;DHT22;25758;48.200;16.338;2023-05-01T00:31:33;12.80;93.00
40053;DHT22;25758;48.200;16.338;2023-05-01T00:33:58;12.80;92.90
40053;DHT22;25758;48.200;16.338;2023-05-01T00:36:24;12.70;93.00
40053;DHT22;25758;48.200;16.338;2023-05-01T00:38:49;12.70;93.00
40053;DHT22;25758;48.200;16.338;2023-05-01T00:41:15;12.80;92.90
40053;DHT22;25758;48.200;16.338;2023-05-01T00:43:41;12.70;92.80
40053;DHT22;25758;48.200;16.338;2023-05-01T00:46:07;12.70;92.90
40053;DHT22;25758;48.200;16.338;2023-05-01T00:48:34;12.70;92.90
40053;DHT22;25758;48.200;16.338;2023-05-01T00:51:01;12.70;92.90
40053;DHT22;25758;48.200;16.338;2023-05-01T00:53:28;12.60;92.70
40053;DHT22;25758;48.200;16.338;2023-05-01T00:55:55;12.60;92.90
40053;DHT22;25758;48.200;16.338;2023-05-01T00:58:22;12.60;92.70
40053;DHT22;25758;48.200;16.338;2023-05-01T01:00:51;12.60;92.70
40053;DHT22;25758;48.200;16.338;2023-05-01T01:03:17;12.60;92.70
40053;DHT22;25758;48.200;16.338;2023-05-01T01:05:56;12.60;92.70
40053;DHT22;25758;48.200;16.338;2023-05-01T01:08:39;12.50;92.70
40053;DHT22;25758;48.200;16.338;2023-05-01T01:11:23;12.50;92.60
40053;DHT22;25758;48.200;16.338;2023-05-01T01:14:02;12.50;92.60
40053;DHT22;25758;48.200;16.338;2023-05-01T01:16:40;12.40;92.60
40053;DHT22;25758;48.200;16.338;2023-05-01T01:22:16;12.40;92.70
40053;DHT22;25758;48.200;16.338;2023-05-01T01:35:37;12.30;92.60
40053;DHT22;25758;48.200;16.338;2023-05-01T01:38:18;12.30;92.60
40053;DHT22;25758;48.200;16.338;2023-05-01T01:41:01;12.30;92.40
40053;DHT22;25758;48.200;16.338;2023-05-01T01:43:34;12.30;92.60
40053;DHT22;25758;48.200;16.338;2023-05-01T01:46:04;12.20;92.50
40053;DHT22;25758;48.200;16.338;2023-05-01T01:48:35;12.30;92.60
40053;DHT22;25758;48.200;16.338;2023-05-01T01:51:05;12.30;92.70
40053;DHT22;25758;48.200;16.338;2023-05-01T01:53:33;12.20;92.70
40053;DHT22;25758;48.200;16.338;2023-05-01T01:56:03;12.20;92.70
40053;DHT22;25758;48.200;16.338;2023-05-01T01:58:32;12.20;92.60
40053;DHT22;25758;48.200;16.338;2023-05-01T02:00:58;12.20;92.60
40053;DHT22;25758;48.200;16.338;2023-05-01T02:03:25;12.20;92.70
40053;DHT22;25758;48.200;16.338;2023-05-01T02:05:53;12.10;92.70
40053;DHT22;25758;48.200;16.338;2023-05-01T02:08:20;12.10;92.80
40053;DHT22;25758;48.200;16.338;2023-05-01T02:10:46;12.10;93.00
40053;DHT22;25758;48.200;16.338;2023-05-01T02:13:13;12.10;92.80
40053;DHT22;25758;48.200;16.338;2023-05-01T02:15:40;12.10;92.80
40053;DHT22;25758;48.200;16.338;2023-05-01T02:18:06;12.10;92.60
40053;DHT22;25758;48.200;16.338;2023-05-01T02:20:33;12.10;92.60
40053;DHT22;25758;48.200;16.338;2023-05-01T02:22:59;12.00;93.00
40053;DHT22;25758;48.200;16.338;2023-05-01T02:25:27;11.90;94.20
40053;DHT22;25758;48.200;16.338;2023-05-01T02:28:01;11.80;94.50
40053;DHT22;25758;48.200;16.338;2023-05-01T02:30:28;11.80;94.60
40053;DHT22;25758;48.200;16.338;2023-05-01T02:32:54;11.90;94.80
40053;DHT22;25758;48.200;16.338;2023-05-01T02:35:20;11.80;95.40
40053;DHT22;25758;48.200;16.338;2023-05-01T02:37:46;11.80;96.00
40053;DHT22;25758;48.200;16.338;2023-05-01T02:40:12;11.60;96.60
40053;DHT22;25758;48.200;16.338;2023-05-01T02:42:41;11.50;97.40
40053;DHT22;25758;48.200;16.338;2023-05-01T02:45:09;11.50;98.10
40053;DHT22;25758;48.200;16.338;2023-05-01T02:47:41;11.30;98.50
40053;DHT22;25758;48.200;16.338;2023-05-01T02:50:09;11.30;98.90
40053;DHT22;25758;48.200;16.338;2023-05-01T02:52:36;11.20;99.20
40053;DHT22;25758;48.200;16.338;2023-05-01T02:55:02;11.10;99.90
40053;DHT22;25758;48.200;16.338;2023-05-01T02:57:32;11.00;99.90
40053;DHT22;25758;48.200;16.338;2023-05-01T02:59:58;11.00;99.90
40053;DHT22;25758;48.200;16.338;2023-05-01T03:02:23;11.00;99.90
40053;DHT22;25758;48.200;16.338;2023-05-01T03:04:49;10.80;99.90
40053;DHT22;25758;48.200;16.338;2023-05-01T03:07:15;10.80;99.90
40053;DHT22;25758;48.200;16.338;2023-05-01T03:12:06;10.70;99.90
40053;DHT22;25758;48.200;16.338;2023-05-01T03:14:32;10.50;99.90
40053;DHT22;25758;48.200;16.338;2023-05-01T03:16:58;10.50;99.90
40053;DHT22;25758;48.200;16.338;2023-05-01T03:19:23;10.50;99.90
40053;DHT22;25758;48.200;16.338;2023-05-01T03:21:49;10.50;99.90
40053;DHT22;25758;48.200;16.338;2023-05-01T03:24:15;10.40;99.90
40053;DHT22;25758;48.200;16.338;2023-05-01T03:26:40;10.40;99.90
40053;DHT22;25758;48.200;16.338;2023-05-01T03:29:06;10.30;99.90
40053;DHT22;25758;48.200;16.338;2023-05-01T03:31:32;10.30;99.90
40053;DHT22;25758;48.200;16.338;2023-05-01T03:33:58;10.20;99.90
40053;DHT22;25758;48.200;16.338;2023-05-01T03:36:24;10.20;99.90
40053;DHT22;25758;48.200;16.338;2023-05-01T03:38:49;10.20;99.90
40053;DHT22;25758;48.200;16.338;2023-05-01T03:41:15;10.20;99.90
40053;DHT22;25758;48.200;16.338;2023-05-01T03:43:41;10.10;99.90
40053;DHT22;25758;48.200;16.338;2023-05-01T03:46:06;10.10;99.90
40053;DHT22;25758;48.200;16.338;2023-05-01T03:48:32;10.10;99.90
40053;DHT22;25758;48.200;16.338;2023-05-01T03:50:57;10.10;99.90
40053;DHT22;25758;48.200;16.338;2023-05-01T03:53:23;10.20;99.90
40053;DHT22;25758;48.200;16.338;2023-05-01T03:55:49;10.00;99.90
40053;DHT22;25758;48.200;16.338;2023-05-01T03:58:15;10.00;99.90
40053;DHT22;25758;48.200;16.338;2023-05-01T04:00:40;10.00;99.90
40053;DHT22;25758;48.200;16.338;2023-05-01T04:03:06;9.90;99.90
40053;DHT22;25758;48.200;16.338;2023-05-01T04:05:32;9.90;99.90
40053;DHT22;25758;48.200;16.338;2023-05-01T04:07:58;9.90;99.90
40053;DHT22;25758;48.200;16.338;2023-05-01T04:10:23;9.90;99.90
40053;DHT22;25758;48.200;16.338;2023-05-01T04:12:49;9.90;99.90
40053;DHT22;25758;48.200;16.338;2023-05-01T04:15:15;9.80;99.90
40053;DHT22;25758;48.200;16.338;2023-05-01T04:17:41;9.80;99.90
40053;DHT22;25758;48.200;16.338;2023-05-01T04:20:08;9.80;99.90
40053;DHT22;25758;48.200;16.338;2023-05-01T04:22:35;9.70;99.90
40053;DHT22;25758;48.200;16.338;2023-05-01T04:25:01;9.70;99.90
40053;DHT22;25758;48.200;16.338;2023-05-01T04:27:27;9.70;99.90
40053;DHT22;25758;48.200;16.338;2023-05-01T04:29:52;9.60;99.90
40053;DHT22;25758;48.200;16.338;2023-05-01T04:32:18;9.60;99.90
40053;DHT22;25758;48.200;16.338;2023-05-01T04:34:45;9.70;99.90
40053;DHT22;25758;48.200;16.338;2023-05-01T04:37:11;9.70;99.90
40053;DHT22;25758;48.200;16.338;2023-05-01T04:39:37;9.80;99.90
40053;DHT22;25758;48.200;16.338;2023-05-01T04:42:03;9.80;99.90
40053;DHT22;25758;48.200;16.338;2023-05-01T04:44:29;9.90;99.90
40053;DHT22;25758;48.200;16.338;2023-05-01T04:46:55;10.00;99.90
40053;DHT22;25758;48.200;16.338;2023-05-01T04:49:21;10.10;99.90
40053;DHT22;25758;48.200;16.338;2023-05-01T04:51:46;10.10;99.90
40053;DHT22;25758;48.200;16.338;2023-05-01T04:54:12;10.00;99.90
40053;DHT22;25758;48.200;16.338;2023-05-01T04:56:38;10.00;99.90
40053;DHT22;25758;48.200;16.338;2023-05-01T04:59:04;10.00;99.90
40053;DHT22;25758;48.200;16.338;2023-05-01T05:01:29;10.00;99.90
40053;DHT22;25758;48.200;16.338;2023-05-01T05:03:55;10.00;99.90
40053;DHT22;25758;48.200;16.338;2023-05-01T05:06:21;10.00;99.90
40053;DHT22;25758;48.200;16.338;2023-05-01T05:08:47;10.10;99.90
40053;DHT22;25758;48.200;16.338;2023-05-01T05:11:16;10.10;99.90
40053;DHT22;25758;48.200;16.338;2023-05-01T05:13:42;10.10;99.90
40053;DHT22;25758;48.200;16.338;2023-05-01T05:16:08;10.20;99.90
40053;DHT22;25758;48.200;16.338;2023-05-01T05:18:33;10.30;99.90
40053;DHT22;25758;48.200;16.338;2023-05-01T05:21:02;10.30;99.90
40053;DHT22;25758;48.200;16.338;2023-05-01T05:23:28;10.40;99.90
40053;DHT22;25758;48.200;16.338;2023-05-01T05:25:54;10.40;99.90
40053;DHT22;25758;48.200;16.338;2023-05-01T05:28:19;10.50;99.90
40053;DHT22;25758;48.200;16.338;2023-05-01T05:30:45;10.50;99.90
40053;DHT22;25758;48.200;16.338;2023-05-01T05:33:11;10.60;99.90
40053;DHT22;25758;48.200;16.338;2023-05-01T05:35:37;10.60;99.90
40053;DHT22;25758;48.200;16.338;2023-05-01T05:38:03;10.60;99.90
40053;DHT22;25758;48.200;16.338;2023-05-01T05:40:28;10.60;99.90
40053;DHT22;25758;48.200;16.338;2023-05-01T05:42:54;10.60;99.90
40053;DHT22;25758;48.200;16.338;2023-05-01T05:45:20;10.70;99.90
40053;DHT22;25758;48.200;16.338;2023-05-01T05:47:47;10.70;99.90
40053;DHT22;25758;48.200;16.338;2023-05-01T05:50:13;10.70;99.90
40053;DHT22;25758;48.200;16.338;2023-05-01T05:52:39;10.70;99.90
40053;DHT22;25758;48.200;16.338;2023-05-01T05:55:05;10.70;99.90
40053;DHT22;25758;48.200;16.338;2023-05-01T05:57:31;10.70;99.90
40053;DHT22;25758;48.200;16.338;2023-05-01T05:59:56;10.80;99.90
40053;DHT22;25758;48.200;16.338;2023-05-01T06:02:22;10.90;99.90
40053;DHT22;25758;48.200;16.338;2023-05-01T06:04:48;10.90;99.90
40053;DHT22;25758;48.200;16.338;2023-05-01T06:07:13;10.90;99.90
40053;DHT22;25758;48.200;16.338;2023-05-01T06:09:39;10.90;99.90
40053;DHT22;25758;48.200;16.338;2023-05-01T06:12:05;11.00;99.90
40053;DHT22;25758;48.200;16.338;2023-05-01T06:14:30;11.00;99.90
40053;DHT22;25758;48.200;16.338;2023-05-01T06:16:56;11.10;99.90
40053;DHT22;25758;48.200;16.338;2023-05-01T06:19:22;11.10;99.90
40053;DHT22;25758;48.200;16.338;2023-05-01T06:21:48;11.20;99.90
40053;DHT22;25758;48.200;16.338;2023-05-01T06:24:13;11.20;99.90
40053;DHT22;25758;48.200;16.338;2023-05-01T06:26:40;11.20;99.90
40053;DHT22;25758;48.200;16.338;2023-05-01T06:29:05;11.20;99.90
40053;DHT22;25758;48.200;16.338;2023-05-01T06:31:31;11.30;99.90
40053;DHT22;25758;48.200;16.338;2023-05-01T06:33:57;11.40;99.90
40053;DHT22;25758;48.200;16.338;2023-05-01T06:36:22;11.50;99.50
40053;DHT22;25758;48.200;16.338;2023-05-01T06:38:48;11.50;99.50
40053;DHT22;25758;48.200;16.338;2023-05-01T06:41:15;14.80;99.90
40053;DHT22;25758;48.200;16.338;2023-05-01T06:43:41;11.60;99.30
40053;DHT22;25758;48.200;16.338;2023-05-01T06:46:06;11.70;99.10
40053;DHT22;25758;48.200;16.338;2023-05-01T06:48:32;11.70;98.80
40053;DHT22;25758;48.200;16.338;2023-05-01T06:50:57;11.80;99.20
40053;DHT22;25758;48.200;16.338;2023-05-01T06:53:23;11.80;99.00
40053;DHT22;25758;48.200;16.338;2023-05-01T06:55:48;11.90;98.80
40053;DHT22;25758;48.200;16.338;2023-05-01T06:58:14;12.00;99.10
40053;DHT22;25758;48.200;16.338;2023-05-01T07:00:40;12.10;98.40
40053;DHT22;25758;48.200;16.338;2023-05-01T07:03:05;12.20;98.70
40053;DHT22;25758;48.200;16.338;2023-05-01T07:05:31;12.20;98.50
40053;DHT22;25758;48.200;16.338;2023-05-01T07:07:57;12.30;98.60
40053;DHT22;25758;48.200;16.338;2023-05-01T07:10:22;9.40;97.60
40053;DHT22;25758;48.200;16.338;2023-05-01T07:12:48;12.50;98.30
40053;DHT22;25758;48.200;16.338;2023-05-01T07:15:13;12.60;98.10
40053;DHT22;25758;48.200;16.338;2023-05-01T07:17:41;12.80;98.00
40053;DHT22;25758;48.200;16.338;2023-05-01T07:20:06;12.90;97.80
40053;DHT22;25758;48.200;16.338;2023-05-01T07:22:32;13.00;97.90
40053;DHT22;25758;48.200;16.338;2023-05-01T07:24:58;13.20;97.80
40053;DHT22;25758;48.200;16.338;2023-05-01T07:27:26;13.20;96.90
40053;DHT22;25758;48.200;16.338;2023-05-01T07:29:54;13.30;96.50
40053;DHT22;25758;48.200;16.338;2023-05-01T07:32:19;13.30;95.90
40053;DHT22;25758;48.200;16.338;2023-05-01T07:34:45;13.40;95.50
40053;DHT22;25758;48.200;16.338;2023-05-01T07:37:11;13.50;95.60
40053;DHT22;25758;48.200;16.338;2023-05-01T07:39:36;13.60;95.90
40053;DHT22;25758;48.200;16.338;2023-05-01T07:42:02;13.70;95.50
40053;DHT22;25758;48.200;16.338;2023-05-01T07:44:28;13.90;96.10
40053;DHT22;25758;48.200;16.338;2023-05-01T07:46:53;14.30;95.10
40053;DHT22;25758;48.200;16.338;2023-05-01T07:49:19;14.50;94.70
40053;DHT22;25758;48.200;16.338;2023-05-01T07:51:45;14.80;94.20
40053;DHT22;25758;48.200;16.338;2023-05-01T07:54:10;15.10;94.00
40053;DHT22;25758;48.200;16.338;2023-05-01T07:56:36;15.20;93.80
40053;DHT22;25758;48.200;16.338;2023-05-01T07:59:02;15.40;93.60
40053;DHT22;25758;48.200;16.338;2023-05-01T08:01:27;15.50;93.30
40053;DHT22;25758;48.200;16.338;2023-05-01T08:03:53;15.60;93.50
40053;DHT22;25758;48.200;16.338;2023-05-01T08:06:19;15.90;93.10
40053;DHT22;25758;48.200;16.338;2023-05-01T08:08:44;16.20;93.30
40053;DHT22;25758;48.200;16.338;2023-05-01T08:11:10;16.60;92.90
40053;DHT22;25758;48.200;16.338;2023-05-01T08:13:36;16.90;92.00
40053;DHT22;25758;48.200;16.338;2023-05-01T08:16:02;17.20;92.30
40053;DHT22;25758;48.200;16.338;2023-05-01T08:18:29;17.30;91.70
40053;DHT22;25758;48.200;16.338;2023-05-01T08:20:54;17.50;91.60
40053;DHT22;25758;48.200;16.338;2023-05-01T08:23:20;17.40;91.30
40053;DHT22;25758;48.200;16.338;2023-05-01T08:25:46;17.40;91.30
40053;DHT22;25758;48.200;16.338;2023-05-01T08:28:15;17.50;91.60
40053;DHT22;25758;48.200;16.338;2023-05-01T08:30:41;17.70;91.60
40053;DHT22;25758;48.200;16.338;2023-05-01T08:33:08;17.80;91.40
40053;DHT22;25758;48.200;16.338;2023-05-01T08:35:33;18.00;91.20
40053;DHT22;25758;48.200;16.338;2023-05-01T08:37:59;18.20;90.80
40053;DHT22;25758;48.200;16.338;2023-05-01T08:40:25;18.30;90.70
40053;DHT22;25758;48.200;16.338;2023-05-01T08:42:52;18.30;90.30
40053;DHT22;25758;48.200;16.338;2023-05-01T08:45:19;18.30;90.40
40053;DHT22;25758;48.200;16.338;2023-05-01T08:47:47;18.30;90.90
40053;DHT22;25758;48.200;16.338;2023-05-01T08:50:13;18.40;90.90
40053;DHT22;25758;48.200;16.338;2023-05-01T08:52:40;18.60;90.80
40053;DHT22;25758;48.200;16.338;2023-05-01T08:55:12;18.70;90.30
40053;DHT22;25758;48.200;16.338;2023-05-01T08:57:38;18.30;90.90
40053;DHT22;25758;48.200;16.338;2023-05-01T09:00:09;18.30;91.10
40053;DHT22;25758;48.200;16.338;2023-05-01T09:02:38;18.50;91.60
40053;DHT22;25758;48.200;16.338;2023-05-01T09:05:06;18.70;90.70
40053;DHT22;25758;48.200;16.338;2023-05-01T09:07:32;18.90;90.60
40053;DHT22;25758;48.200;16.338;2023-05-01T09:09:59;19.00;90.20
40053;DHT22;25758;48.200;16.338;2023-05-01T09:12:26;19.10;89.20
40053;DHT22;25758;48.200;16.338;2023-05-01T09:14:52;19.20;89.10
40053;DHT22;25758;48.200;16.338;2023-05-01T09:17:19;19.30;89.20
40053;DHT22;25758;48.200;16.338;2023-05-01T09:19:45;19.50;88.30
40053;DHT22;25758;48.200;16.338;2023-05-01T09:22:11;19.50;86.90
40053;DHT22;25758;48.200;16.338;2023-05-01T09:24:36;19.40;86.50
40053;DHT22;25758;48.200;16.338;2023-05-01T09:27:02;19.50;87.90
40053;DHT22;25758;48.200;16.338;2023-05-01T09:29:48;19.60;86.50
40053;DHT22;25758;48.200;16.338;2023-05-01T09:32:16;19.60;85.70
40053;DHT22;25758;48.200;16.338;2023-05-01T09:34:42;19.40;86.70
40053;DHT22;25758;48.200;16.338;2023-05-01T09:37:13;19.50;86.70
40053;DHT22;25758;48.200;16.338;2023-05-01T09:39:48;19.60;87.50
40053;DHT22;25758;48.200;16.338;2023-05-01T09:42:24;19.70;85.70
40053;DHT22;25758;48.200;16.338;2023-05-01T09:44:50;19.80;86.80
40053;DHT22;25758;48.200;16.338;2023-05-01T09:47:22;20.10;86.70
40053;DHT22;25758;48.200;16.338;2023-05-01T09:49:48;20.00;85.50
40053;DHT22;25758;48.200;16.338;2023-05-01T09:52:14;20.00;84.40
40053;DHT22;25758;48.200;16.338;2023-05-01T09:54:41;20.00;84.60
40053;DHT22;25758;48.200;16.338;2023-05-01T09:57:07;20.00;85.00
40053;DHT22;25758;48.200;16.338;2023-05-01T09:59:33;20.10;84.70
40053;DHT22;25758;48.200;16.338;2023-05-01T10:01:59;20.00;84.30
40053;DHT22;25758;48.200;16.338;2023-05-01T10:04:33;19.90;85.40
40053;DHT22;25758;48.200;16.338;2023-05-01T10:07:12;19.80;84.90
40053;DHT22;25758;48.200;16.338;2023-05-01T10:09:38;19.70;85.20
40053;DHT22;25758;48.200;16.338;2023-05-01T10:12:04;19.80;85.80
40053;DHT22;25758;48.200;16.338;2023-05-01T10:14:30;19.80;85.20
40053;DHT22;25758;48.200;16.338;2023-05-01T10:16:58;19.80;86.40
40053;DHT22;25758;48.200;16.338;2023-05-01T10:19:24;20.00;86.00
40053;DHT22;25758;48.200;16.338;2023-05-01T10:21:50;20.10;86.20
40053;DHT22;25758;48.200;16.338;2023-05-01T10:24:16;20.10;86.60
40053;DHT22;25758;48.200;16.338;2023-05-01T10:26:43;20.10;86.60
40053;DHT22;25758;48.200;16.338;2023-05-01T10:29:09;20.20;86.70
40053;DHT22;25758;48.200;16.338;2023-05-01T10:31:35;20.40;86.90
40053;DHT22;25758;48.200;16.338;2023-05-01T10:34:01;20.40;85.60
40053;DHT22;25758;48.200;16.338;2023-05-01T10:36:46;20.20;85.60
40053;DHT22;25758;48.200;16.338;2023-05-01T10:39:32;20.40;86.50
40053;DHT22;25758;48.200;16.338;2023-05-01T10:42:01;20.50;85.60
40053;DHT22;25758;48.200;16.338;2023-05-01T10:44:31;20.40;85.50
40053;DHT22;25758;48.200;16.338;2023-05-01T10:46:57;20.30;85.40
40053;DHT22;25758;48.200;16.338;2023-05-01T10:49:23;20.40;86.70
40053;DHT22;25758;48.200;16.338;2023-05-01T10:54:27;20.30;86.00
40053;DHT22;25758;48.200;16.338;2023-05-01T10:56:56;20.30;87.00
40053;DHT22;25758;48.200;16.338;2023-05-01T10:59:23;20.30;87.00
40053;DHT22;25758;48.200;16.338;2023-05-01T11:01:51;20.30;87.80
40053;DHT22;25758;48.200;16.338;2023-05-01T11:09:41;20.60;86.30
40053;DHT22;25758;48.200;16.338;2023-05-01T11:12:08;20.60;87.10
40053;DHT22;25758;48.200;16.338;2023-05-01T11:20:05;20.80;87.10
40053;DHT22;25758;48.200;16.338;2023-05-01T11:22:31;20.70;85.60
40053;DHT22;25758;48.200;16.338;2023-05-01T11:24:57;20.70;86.00
40053;DHT22;25758;48.200;16.338;2023-05-01T11:27:23;20.70;86.10
40053;DHT22;25758;48.200;16.338;2023-05-01T11:29:49;20.60;85.20
40053;DHT22;25758;48.200;16.338;2023-05-01T11:32:22;20.40;86.00
40053;DHT22;25758;48.200;16.338;2023-05-01T11:34:49;20.20;87.20
40053;DHT22;25758;48.200;16.338;2023-05-01T11:37:15;20.30;87.60
40053;DHT22;25758;48.200;16.338;2023-05-01T11:39:48;20.20;86.90
40053;DHT22;25758;48.200;16.338;2023-05-01T11:42:14;20.10;87.00
40053;DHT22;25758;48.200;16.338;2023-05-01T11:44:40;20.00;86.30
40053;DHT22;25758;48.200;16.338;2023-05-01T11:47:05;20.10;86.80
40053;DHT22;25758;48.200;16.338;2023-05-01T11:49:33;20.00;87.80
40053;DHT22;25758;48.200;16.338;2023-05-01T11:51:59;20.00;86.80
40053;DHT22;25758;48.200;16.338;2023-05-01T11:54:25;19.80;87.00
40053;DHT22;25758;48.200;16.338;2023-05-01T11:57:00;19.70;87.50
40053;DHT22;25758;48.200;16.338;2023-05-01T11:59:25;19.80;88.20
40053;DHT22;25758;48.200;16.338;2023-05-01T12:01:52;19.80;88.40
40053;DHT22;25758;48.200;16.338;2023-05-01T12:04:25;19.90;88.10
40053;DHT22;25758;48.200;16.338;2023-05-01T12:06:54;19.70;88.00
40053;DHT22;25758;48.200;16.338;2023-05-01T12:09:24;19.80;88.50
40053;DHT22;25758;48.200;16.338;2023-05-01T12:11:52;19.80;88.80
40053;DHT22;25758;48.200;16.338;2023-05-01T12:14:18;19.90;88.30
40053;DHT22;25758;48.200;16.338;2023-05-01T12:16:45;19.90;88.80
40053;DHT22;25758;48.200;16.338;2023-05-01T12:19:15;19.90;88.10
40053;DHT22;25758;48.200;16.338;2023-05-01T12:21:41;19.80;88.30
40053;DHT22;25758;48.200;16.338;2023-05-01T12:24:15;19.90;88.70
40053;DHT22;25758;48.200;16.338;2023-05-01T12:26:43;19.80;88.40
40053;DHT22;25758;48.200;16.338;2023-05-01T12:29:09;19.70;87.70
40053;DHT22;25758;48.200;16.338;2023-05-01T12:31:36;19.80;88.80
40053;DHT22;25758;48.200;16.338;2023-05-01T12:34:09;19.80;88.80
40053;DHT22;25758;48.200;16.338;2023-05-01T12:36:36;19.80;88.90
40053;DHT22;25758;48.200;16.338;2023-05-01T12:39:11;19.80;88.90
40053;DHT22;25758;48.200;16.338;2023-05-01T12:41:41;19.80;87.70
40053;DHT22;25758;48.200;16.338;2023-05-01T12:44:21;19.80;87.80
40053;DHT22;25758;48.200;16.338;2023-05-01T12:47:04;19.70;88.50
40053;DHT22;25758;48.200;16.338;2023-05-01T12:49:31;19.60;88.70
40053;DHT22;25758;48.200;16.338;2023-05-01T12:51:59;19.60;88.60
40053;DHT22;25758;48.200;16.338;2023-05-01T12:54:30;19.70;88.90
40053;DHT22;25758;48.200;16.338;2023-05-01T12:57:15;19.60;89.10
40053;DHT22;25758;48.200;16.338;2023-05-01T12:59:43;19.60;89.10
40053;DHT22;25758;48.200;16.338;2023-05-01T13:02:14;19.60;89.40
40053;DHT22;25758;48.200;16.338;2023-05-01T13:04:42;19.50;88.50
40053;DHT22;25758;48.200;16.338;2023-05-01T13:07:15;19.50;88.60
40053;DHT22;25758;48.200;16.338;2023-05-01T13:09:55;19.60;87.30
40053;DHT22;25758;48.200;16.338;2023-05-01T13:12:26;19.50;86.80
40053;DHT22;25758;48.200;16.338;2023-05-01T13:14:52;19.40;87.00
40053;DHT22;25758;48.200;16.338;2023-05-01T13:17:23;19.40;87.30
40053;DHT22;25758;48.200;16.338;2023-05-01T13:20:01;19.40;87.30
40053;DHT22;25758;48.200;16.338;2023-05-01T13:22:35;19.40;87.30
40053;DHT22;25758;48.200;16.338;2023-05-01T13:25:03;19.40;87.70
40053;DHT22;25758;48.200;16.338;2023-05-01T13:27:29;19.50;88.00
40053;DHT22;25758;48.200;16.338;2023-05-01T13:29:57;19.50;87.90
40053;DHT22;25758;48.200;16.338;2023-05-01T13:32:24;19.50;87.20
40053;DHT22;25758;48.200;16.338;2023-05-01T13:34:50;19.60;86.70
40053;DHT22;25758;48.200;16.338;2023-05-01T13:37:16;19.60;87.30
40053;DHT22;25758;48.200;16.338;2023-05-01T13:39:45;19.60;88.00
40053;DHT22;25758;48.200;16.338;2023-05-01T13:42:14;19.70;88.40
40053;DHT22;25758;48.200;16.338;2023-05-01T13:44:45;19.70;88.40
40053;DHT22;25758;48.200;16.338;2023-05-01T13:47:17;19.70;88.50
40053;DHT22;25758;48.200;16.338;2023-05-01T13:49:43;19.70;88.50
40053;DHT22;25758;48.200;16.338;2023-05-01T13:52:17;19.70;88.50
40053;DHT22;25758;48.200;16.338;2023-05-01T13:54:44;19.70;87.40
40053;DHT22;25758;48.200;16.338;2023-05-01T13:57:11;19.60;87.50
40053;DHT22;25758;48.200;16.338;2023-05-01T13:59:42;19.50;87.50
40053;DHT22;25758;48.200;16.338;2023-05-01T14:04:46;19.50;86.80
40053;DHT22;25758;48.200;16.338;2023-05-01T14:07:17;19.50;87.30
40053;DHT22;25758;48.200;16.338;2023-05-01T14:09:44;19.50;88.00
40053;DHT22;25758;48.200;16.338;2023-05-01T14:12:12;19.60;88.20
40053;DHT22;25758;48.200;16.338;2023-05-01T14:14:43;19.60;87.90
40053;DHT22;25758;48.200;16.338;2023-05-01T14:17:09;19.60;87.50
40053;DHT22;25758;48.200;16.338;2023-05-01T14:19:36;19.60;87.30
40053;DHT22;25758;48.200;16.338;2023-05-01T14:22:02;19.50;87.10
40053;DHT22;25758;48.200;16.338;2023-05-01T14:24:39;19.40;87.70
40053;DHT22;25758;48.200;16.338;2023-05-01T14:27:08;19.50;87.90
40053;DHT22;25758;48.200;16.338;2023-05-01T14:29:35;19.50;87.70
40053;DHT22;25758;48.200;16.338;2023-05-01T14:32:04;19.50;87.40
40053;DHT22;25758;48.200;16.338;2023-05-01T14:34:30;19.50;87.40
40053;DHT22;25758;48.200;16.338;2023-05-01T14:36:56;19.50;87.70
40053;DHT22;25758;48.200;16.338;2023-05-01T14:39:22;19.60;87.80
40053;DHT22;25758;48.200;16.338;2023-05-01T14:41:49;19.60;87.50
40053;DHT22;25758;48.200;16.338;2023-05-01T14:44:18;19.60;87.80
40053;DHT22;25758;48.200;16.338;2023-05-01T14:46:48;19.60;88.10
40053;DHT22;25758;48.200;16.338;2023-05-01T14:49:21;19.70;87.20
40053;DHT22;25758;48.200;16.338;2023-05-01T14:51:47;19.60;87.00
40053;DHT22;25758;48.200;16.338;2023-05-01T14:54:13;19.70;87.40
40053;DHT22;25758;48.200;16.338;2023-05-01T14:56:41;19.60;87.50
40053;DHT22;25758;48.200;16.338;2023-05-01T14:59:07;19.60;87.80
40053;DHT22;25758;48.200;16.338;2023-05-01T15:01:32;19.70;88.10
40053;DHT22;25758;48.200;16.338;2023-05-01T15:03:58;19.70;87.30
40053;DHT22;25758;48.200;16.338;2023-05-01T15:06:24;19.60;87.50
40053;DHT22;25758;48.200;16.338;2023-05-01T15:08:50;19.70;87.60
40053;DHT22;25758;48.200;16.338;2023-05-01T15:11:16;19.70;87.50
40053;DHT22;25758;48.200;16.338;2023-05-01T15:13:46;19.70;87.50
40053;DHT22;25758;48.200;16.338;2023-05-01T15:16:13;19.70;87.40
40053;DHT22;25758;48.200;16.338;2023-05-01T15:18:39;19.70;87.70
40053;DHT22;25758;48.200;16.338;2023-05-01T15:21:05;19.70;87.70
40053;DHT22;25758;48.200;16.338;2023-05-01T15:23:31;19.70;86.80
40053;DHT22;25758;48.200;16.338;2023-05-01T15:25:57;19.70;86.40
40053;DHT22;25758;48.200;16.338;2023-05-01T15:28:23;19.70;87.60
40053;DHT22;25758;48.200;16.338;2023-05-01T15:30:51;19.70;87.70
40053;DHT22;25758;48.200;16.338;2023-05-01T15:33:17;19.70;87.70
40053;DHT22;25758;48.200;16.338;2023-05-01T15:35:43;19.70;87.00
40053;DHT22;25758;48.200;16.338;2023-05-01T15:38:10;19.60;87.40
40053;DHT22;25758;48.200;16.338;2023-05-01T15:40:36;19.60;87.40
40053;DHT22;25758;48.200;16.338;2023-05-01T15:43:04;19.60;87.60
40053;DHT22;25758;48.200;16.338;2023-05-01T15:45:30;19.50;87.90
40053;DHT22;25758;48.200;16.338;2023-05-01T15:47:56;19.50;87.90
40053;DHT22;25758;48.200;16.338;2023-05-01T15:50:22;19.50;88.20
40053;DHT22;25758;48.200;16.338;2023-05-01T15:52:51;19.40;88.30